createdAt,value
2022-08-06T00:00:02.758Z,2.80
2022-08-06T00:02:59.129Z,2.33
2022-08-06T00:06:02.164Z,2.25
2022-08-06T00:09:06.047Z,2.40
2022-08-06T00:12:10.567Z,2.40
2022-08-06T00:15:14.897Z,3.33
2022-08-06T00:18:18.322Z,2.67
2022-08-06T00:21:41.795Z,2.33
2022-08-06T00:24:44.601Z,2.95
2022-08-06T00:27:51.534Z,2.58
2022-08-06T00:30:55.571Z,2.85
2022-08-06T00:34:03.962Z,2.28
2022-08-06T00:37:18.881Z,2.53
2022-08-06T00:40:24.197Z,2.53
2022-08-06T00:43:35.416Z,2.78
2022-08-06T00:46:45.092Z,2.45
2022-08-06T00:49:51.091Z,2.62
2022-08-06T00:52:54.220Z,2.53
2022-08-06T00:55:59.837Z,2.60
2022-08-06T00:59:04.949Z,2.50
2022-08-06T01:02:14.786Z,2.37
2022-08-06T01:06:03.680Z,2.47
2022-08-06T01:08:41.726Z,3.00
2022-08-06T01:11:45.671Z,2.93
2022-08-06T01:15:02.515Z,2.70
2022-08-06T01:18:11.762Z,2.85
2022-08-06T01:22:28.339Z,2.87
2022-08-06T01:25:46.597Z,2.83
2022-08-06T01:29:14.261Z,2.50
2022-08-06T01:32:26.751Z,2.90
2022-08-06T01:35:47.392Z,2.62
2022-08-06T01:39:01.321Z,2.37
2022-08-06T01:42:06.685Z,2.70
2022-08-06T01:45:13.231Z,2.30
2022-08-06T01:48:19.542Z,2.75
2022-08-06T01:52:14.308Z,2.53
2022-08-06T01:54:59.538Z,2.83
2022-08-06T01:58:08.113Z,3.00
2022-08-06T02:01:23.878Z,2.60
2022-08-06T02:04:29.652Z,2.45
2022-08-06T02:08:38.863Z,2.53
2022-08-06T02:11:01.032Z,2.78
2022-08-06T02:14:28.159Z,2.25
2022-08-06T02:18:04.433Z,2.50
2022-08-06T02:21:19.118Z,2.60
2022-08-06T02:27:43.390Z,2.45
2022-08-06T02:30:55.627Z,2.92
2022-08-06T02:34:02.271Z,2.72
2022-08-06T02:37:22.510Z,2.33
2022-08-06T02:40:48.971Z,2.25
2022-08-06T02:43:58.169Z,2.28
2022-08-06T02:47:17.216Z,2.53
2022-08-06T02:50:26.962Z,2.28
2022-08-06T02:54:02.756Z,2.62
2022-08-06T02:57:04.210Z,2.62
2022-08-06T03:00:11.249Z,2.55
2022-08-06T03:03:21.288Z,2.50
2022-08-06T03:06:26.824Z,2.62
2022-08-06T03:09:32.783Z,2.50
2022-08-06T03:12:37.560Z,2.80
2022-08-06T03:15:59.975Z,2.87
2022-08-06T03:19:55.236Z,2.90
2022-08-06T03:22:36.207Z,3.13
2022-08-06T03:25:42.971Z,3.60
2022-08-06T03:28:46.764Z,3.37
2022-08-06T03:31:58.338Z,3.22
2022-08-06T03:35:17.131Z,3.30
2022-08-06T03:38:40.055Z,3.65
2022-08-06T03:42:08.466Z,3.35
2022-08-06T03:45:07.972Z,3.35
2022-08-06T03:48:35.838Z,3.10
2022-08-06T03:51:51.374Z,2.90
2022-08-06T03:55:04.376Z,3.05
2022-08-06T03:58:10.869Z,2.70
2022-08-06T04:01:20.134Z,3.17
2022-08-06T04:04:27.405Z,2.62
2022-08-06T04:07:53.607Z,2.75
2022-08-06T04:10:58.351Z,3.10
2022-08-06T04:14:07.139Z,2.53
2022-08-06T04:17:12.204Z,3.22
2022-08-06T04:20:19.628Z,2.80
2022-08-06T04:23:40.784Z,2.72
2022-08-06T04:26:45.565Z,3.90
2022-08-06T04:29:56.534Z,3.22
2022-08-06T04:33:06.887Z,3.90
2022-08-06T04:36:23.995Z,3.97
2022-08-06T04:39:49.426Z,3.90
2022-08-06T04:42:53.190Z,3.85
2022-08-06T04:46:16.508Z,4.00
2022-08-06T04:49:22.150Z,4.00
2022-08-06T04:52:42.850Z,4.40
2022-08-06T04:56:03.044Z,4.60
2022-08-06T04:59:07.842Z,4.47
2022-08-06T05:02:12.228Z,4.87
2022-08-06T05:05:17.747Z,4.50
2022-08-06T05:08:27.899Z,4.07
2022-08-06T05:11:34.865Z,4.85
2022-08-06T05:15:03.626Z,5.00
2022-08-06T05:19:16.796Z,5.45
2022-08-06T05:22:10.944Z,5.53
2022-08-06T05:25:12.045Z,5.20
2022-08-06T05:28:19.585Z,4.70
2022-08-06T05:31:46.218Z,5.10
2022-08-06T05:34:51.928Z,4.82
2022-08-06T05:38:02.259Z,5.35
2022-08-06T05:41:10.217Z,4.90
2022-08-06T05:44:13.528Z,5.03
2022-08-06T05:47:22.887Z,5.53
2022-08-06T05:50:29.383Z,5.72
2022-08-06T05:54:03.948Z,5.50
2022-08-06T05:57:06.992Z,5.37
2022-08-06T06:00:32.128Z,6.15
2022-08-06T06:03:39.958Z,5.37
2022-08-06T06:06:43.416Z,5.07
2022-08-06T06:09:56.387Z,5.55
2022-08-06T06:13:25.230Z,5.50
2022-08-06T06:17:07.915Z,5.25
2022-08-06T06:20:58.000Z,5.00
2022-08-06T06:23:55.861Z,5.50
2022-08-06T06:27:56.249Z,4.70
2022-08-06T06:32:04.359Z,5.07
2022-08-06T06:35:20.959Z,5.28
2022-08-06T06:39:16.226Z,4.80
2022-08-06T06:42:32.679Z,6.00
2022-08-06T06:46:38.704Z,5.12
2022-08-06T06:50:03.628Z,4.75
2022-08-06T06:53:11.517Z,5.07
2022-08-06T06:56:18.069Z,5.05
2022-08-06T06:59:26.353Z,5.22
2022-08-06T07:02:49.859Z,5.18
2022-08-06T07:06:05.936Z,4.57
2022-08-06T07:09:39.259Z,5.22
2022-08-06T07:12:45.933Z,4.82
2022-08-06T07:15:54.928Z,4.70
2022-08-06T07:18:58.665Z,4.47
2022-08-06T07:22:02.380Z,4.90
2022-08-06T07:25:08.186Z,4.57
2022-08-06T07:28:20.731Z,4.35
2022-08-06T07:31:27.357Z,4.65
2022-08-06T07:34:40.408Z,4.40
2022-08-06T07:37:51.350Z,4.10
2022-08-06T07:40:56.511Z,4.45
2022-08-06T07:44:03.066Z,4.20
2022-08-06T07:47:24.682Z,4.00
2022-08-06T07:50:29.997Z,3.95
2022-08-06T07:53:52.222Z,4.00
2022-08-06T07:57:01.561Z,4.40
2022-08-06T08:00:06.342Z,4.22
2022-08-06T08:07:01.601Z,4.22
2022-08-06T08:10:05.536Z,4.18
2022-08-06T08:13:09.024Z,5.10
2022-08-06T08:16:20.345Z,4.85
2022-08-06T08:19:35.288Z,4.07
2022-08-06T08:22:48.455Z,4.25
2022-08-06T08:25:53.467Z,4.65
2022-08-06T08:28:57.787Z,4.43
2022-08-06T08:32:01.937Z,4.70
2022-08-06T08:35:09.105Z,4.70
2022-08-06T08:38:11.918Z,4.43
2022-08-06T08:41:22.091Z,4.23
2022-08-06T08:44:29.372Z,4.25
2022-08-06T08:47:46.912Z,4.15
2022-08-06T08:50:58.497Z,4.00
2022-08-06T08:54:03.174Z,4.25
2022-08-06T08:58:40.633Z,4.43
2022-08-06T09:00:33.471Z,4.05
2022-08-06T09:03:47.392Z,4.70
2022-08-06T09:06:54.565Z,3.97
2022-08-06T09:10:01.477Z,4.30
2022-08-06T09:13:22.708Z,4.22
2022-08-06T09:16:32.143Z,4.07
2022-08-06T09:19:37.576Z,4.20
2022-08-06T09:22:45.503Z,4.57
2022-08-06T09:25:52.415Z,4.30
2022-08-06T09:28:55.571Z,4.10
2022-08-06T09:32:00.264Z,4.50
2022-08-06T09:35:04.898Z,3.85
2022-08-06T09:38:20.643Z,4.82
2022-08-06T09:41:25.588Z,4.70
2022-08-06T09:44:35.223Z,4.65
2022-08-06T09:47:40.729Z,4.20
2022-08-06T09:50:46.936Z,4.65
2022-08-06T09:54:21.939Z,4.93
2022-08-06T09:57:31.543Z,5.05
2022-08-06T10:00:39.080Z,5.00
2022-08-06T10:04:02.086Z,5.28
2022-08-06T10:07:06.202Z,5.15
2022-08-06T10:10:11.434Z,5.20
2022-08-06T10:13:26.299Z,4.93
2022-08-06T10:16:31.078Z,4.82
2022-08-06T10:19:36.180Z,4.55
2022-08-06T10:22:51.735Z,4.87
2022-08-06T10:25:54.510Z,4.75
2022-08-06T10:29:07.505Z,5.07
2022-08-06T10:32:17.667Z,5.10
2022-08-06T10:35:25.498Z,4.93
2022-08-06T10:38:34.688Z,4.80
2022-08-06T10:42:01.187Z,4.78
2022-08-06T10:45:12.581Z,5.10
2022-08-06T10:48:59.269Z,5.07
2022-08-06T10:55:02.056Z,5.03
2022-08-06T10:58:05.349Z,5.70
2022-08-06T11:04:35.764Z,5.50
2022-08-06T11:08:11.883Z,5.53
2022-08-06T11:12:06.272Z,5.85
2022-08-06T11:15:11.650Z,5.97
2022-08-06T11:18:16.196Z,5.70
2022-08-06T11:22:01.845Z,6.43
2022-08-06T11:25:14.103Z,6.72
2022-08-06T11:28:29.860Z,6.40
2022-08-06T11:31:37.188Z,6.68
2022-08-06T11:34:51.486Z,6.72
2022-08-06T11:38:03.429Z,6.55
2022-08-06T11:41:54.233Z,7.20
2022-08-06T11:45:06.010Z,7.32
2022-08-06T11:48:17.472Z,7.22
2022-08-06T11:52:03.895Z,5.93
2022-08-06T11:55:22.622Z,7.62
2022-08-06T11:58:26.927Z,6.80
2022-08-06T12:01:46.917Z,6.90
2022-08-06T12:04:51.287Z,6.97
2022-08-06T12:08:22.095Z,7.25
2022-08-06T12:11:42.621Z,6.68
2022-08-06T12:14:50.791Z,6.43
2022-08-06T12:18:18.701Z,7.12
2022-08-06T12:21:25.199Z,6.75
2022-08-06T12:24:45.449Z,6.70
2022-08-06T12:27:57.508Z,6.68
2022-08-06T12:31:00.618Z,7.25
2022-08-06T12:34:27.755Z,6.97
2022-08-06T12:37:47.953Z,6.57
2022-08-06T12:41:01.553Z,6.10
2022-08-06T12:44:20.185Z,6.93
2022-08-06T12:48:03.613Z,6.60
2022-08-06T12:51:11.072Z,6.80
2022-08-06T12:54:25.727Z,7.07
2022-08-06T12:57:58.993Z,6.50
2022-08-06T13:00:56.158Z,6.55
2022-08-06T13:04:06.635Z,5.28
2022-08-06T13:07:14.863Z,5.15
2022-08-06T13:10:35.299Z,4.87
2022-08-06T13:14:13.319Z,5.12
2022-08-06T13:17:18.930Z,5.05
2022-08-06T13:20:47.752Z,4.75
2022-08-06T13:23:54.238Z,3.58
2022-08-06T13:26:58.187Z,3.35
2022-08-06T13:30:32.745Z,3.42
2022-08-06T13:33:32.484Z,3.42
2022-08-06T13:36:59.333Z,3.50
2022-08-06T13:40:04.149Z,3.85
2022-08-06T13:43:09.168Z,3.92
2022-08-06T13:46:16.946Z,3.10
2022-08-06T13:49:23.045Z,2.85
2022-08-06T13:52:29.010Z,3.33
2022-08-06T13:56:02.198Z,3.00
2022-08-06T13:58:56.005Z,2.80
2022-08-06T14:02:02.681Z,2.80
2022-08-06T14:05:14.402Z,2.70
2022-08-06T14:08:34.255Z,2.53
2022-08-06T14:11:39.165Z,2.50
2022-08-06T14:14:42.020Z,2.60
2022-08-06T14:17:51.338Z,3.00
2022-08-06T14:20:54.678Z,2.78
2022-08-06T14:24:00.420Z,2.75
2022-08-06T14:27:15.893Z,2.60
2022-08-06T14:30:31.148Z,2.45
2022-08-06T14:33:36.722Z,2.60
2022-08-06T14:36:42.031Z,2.17
2022-08-06T14:39:59.609Z,2.20
2022-08-06T14:43:22.390Z,2.12
2022-08-06T14:46:31.436Z,2.37
2022-08-06T14:49:51.561Z,2.50
2022-08-06T14:52:54.731Z,2.50
2022-08-06T14:56:08.344Z,2.47
2022-08-06T14:59:11.508Z,2.87
2022-08-06T15:02:15.146Z,2.40
2022-08-06T15:05:24.603Z,2.28
2022-08-06T15:08:48.775Z,2.45
2022-08-06T15:11:59.492Z,2.53
2022-08-06T15:15:05.729Z,2.70
2022-08-06T15:18:40.548Z,2.47
2022-08-06T15:21:43.841Z,2.60
2022-08-06T15:24:54.376Z,2.10
2022-08-06T15:27:58.178Z,2.40
2022-08-06T15:31:02.607Z,2.20
2022-08-06T15:34:12.237Z,1.92
2022-08-06T15:37:52.522Z,2.30
2022-08-06T15:40:42.710Z,2.03
2022-08-06T15:43:51.101Z,1.98
2022-08-06T15:46:55.500Z,1.95
2022-08-06T15:50:03.615Z,1.80
2022-08-06T15:53:22.738Z,1.90
2022-08-06T15:56:33.781Z,1.80
2022-08-06T15:59:52.851Z,2.20
2022-08-06T16:02:55.775Z,1.62
2022-08-06T16:06:10.683Z,1.75
2022-08-06T16:09:27.744Z,1.83
2022-08-06T16:12:31.494Z,1.60
2022-08-06T16:15:37.363Z,1.58
2022-08-06T16:18:49.197Z,1.70
2022-08-06T16:21:55.281Z,1.45
2022-08-06T16:25:00.013Z,1.60
2022-08-06T16:28:04.252Z,1.40
2022-08-06T16:31:11.190Z,1.58
2022-08-06T16:34:25.212Z,1.40
2022-08-06T16:40:56.847Z,1.67
2022-08-06T16:44:02.442Z,1.50
2022-08-06T16:50:36.890Z,1.60
2022-08-06T16:54:13.676Z,1.67
2022-08-06T16:57:03.457Z,1.42
2022-08-06T17:00:15.067Z,1.70
2022-08-06T17:03:43.667Z,1.80
2022-08-06T17:06:48.983Z,1.75
2022-08-06T17:09:52.389Z,1.47
2022-08-06T17:13:09.404Z,1.35
2022-08-06T17:16:13.118Z,1.40
2022-08-06T17:19:17.785Z,1.48
2022-08-06T17:22:22.566Z,1.60
2022-08-06T17:25:51.217Z,1.45
2022-08-06T17:28:51.590Z,1.23
2022-08-06T17:31:58.984Z,1.25
2022-08-06T17:38:27.866Z,1.35
2022-08-06T17:41:46.269Z,1.33
2022-08-06T17:44:52.672Z,1.48
2022-08-06T17:47:58.823Z,1.60
2022-08-06T17:51:09.638Z,1.40
2022-08-06T17:54:44.591Z,1.00
2022-08-06T17:58:32.923Z,1.33
2022-08-06T18:01:06.153Z,1.20
2022-08-06T18:04:21.721Z,1.40
2022-08-06T18:08:08.078Z,1.12
2022-08-06T18:10:51.301Z,1.42
2022-08-06T18:13:54.965Z,1.37
2022-08-06T18:16:58.112Z,1.30
2022-08-06T18:20:01.778Z,1.33
2022-08-06T18:23:05.237Z,1.17
2022-08-06T18:26:23.139Z,1.48
2022-08-06T18:29:59.265Z,1.48
2022-08-06T18:32:57.018Z,1.33
2022-08-06T18:36:06.736Z,1.20
2022-08-06T18:39:13.128Z,1.30
2022-08-06T18:42:19.072Z,1.40
2022-08-06T18:48:27.209Z,1.12
2022-08-06T18:51:34.108Z,1.70
2022-08-06T18:54:42.028Z,1.40
2022-08-06T18:58:04.531Z,1.35
2022-08-06T19:01:20.523Z,1.10
2022-08-06T19:04:28.539Z,1.40
2022-08-06T19:07:40.113Z,1.33
2022-08-06T19:10:43.708Z,1.50
2022-08-06T19:14:16.925Z,1.50
2022-08-06T19:17:22.686Z,1.50
2022-08-06T19:20:45.591Z,1.40
2022-08-06T19:24:02.971Z,1.20
2022-08-06T19:27:08.623Z,1.40
2022-08-06T19:30:40.966Z,1.60
2022-08-06T19:33:36.480Z,1.48
2022-08-06T19:36:40.905Z,1.67
2022-08-06T19:39:53.394Z,1.30
2022-08-06T19:44:26.626Z,1.30
2022-08-06T19:46:34.499Z,1.50
2022-08-06T19:49:41.155Z,1.58
2022-08-06T19:52:48.675Z,1.45
2022-08-06T19:56:06.896Z,1.52
2022-08-06T20:00:55.249Z,1.58
2022-08-06T20:02:35.272Z,1.73
2022-08-06T20:06:19.817Z,1.12
2022-08-06T20:09:27.238Z,1.35
2022-08-06T20:12:38.810Z,1.50
2022-08-06T20:15:46.429Z,1.70
2022-08-06T20:18:49.963Z,1.37
2022-08-06T20:21:56.784Z,1.20
2022-08-06T20:25:00.010Z,1.40
2022-08-06T20:29:07.842Z,1.45
2022-08-06T20:31:55.232Z,1.60
2022-08-06T20:34:58.396Z,1.17
2022-08-06T20:38:03.179Z,1.42
2022-08-06T20:41:56.590Z,1.40
2022-08-06T20:44:36.270Z,1.40
2022-08-06T20:47:44.408Z,1.37
2022-08-06T20:50:49.928Z,1.30
2022-08-06T20:54:02.122Z,1.40
2022-08-06T20:57:20.990Z,1.62
2022-08-06T21:05:12.733Z,1.77
2022-08-06T21:06:55.011Z,1.80
2022-08-06T21:09:58.093Z,1.80
2022-08-06T21:13:06.377Z,1.58
2022-08-06T21:16:13.730Z,1.70
2022-08-06T21:19:25.535Z,1.87
2022-08-06T21:22:44.810Z,1.90
2022-08-06T21:28:54.864Z,1.98
2022-08-06T21:32:00.041Z,1.87
2022-08-06T21:35:03.930Z,2.00
2022-08-06T21:38:24.048Z,1.77
2022-08-06T21:41:55.600Z,2.05
2022-08-06T21:44:52.264Z,2.20
2022-08-06T21:47:55.646Z,1.92
2022-08-06T21:51:01.112Z,1.80
2022-08-06T21:54:05.106Z,2.10
2022-08-06T21:57:11.791Z,2.03
2022-08-06T22:00:44.881Z,2.17
2022-08-06T22:04:34.926Z,2.60
2022-08-06T22:07:19.386Z,2.35
2022-08-06T22:13:50.917Z,2.40
2022-08-06T22:16:59.316Z,2.25
2022-08-06T22:20:11.419Z,2.17
2022-08-06T22:23:25.772Z,2.20
2022-08-06T22:26:31.784Z,2.40
2022-08-06T22:29:53.789Z,2.40
2022-08-06T22:32:57.703Z,2.40
2022-08-06T22:36:11.680Z,2.70
2022-08-06T22:39:15.956Z,2.60
2022-08-06T22:42:35.492Z,2.30
2022-08-06T22:46:01.172Z,2.78
2022-08-06T22:49:13.041Z,2.37
2022-08-06T22:52:15.981Z,2.80
2022-08-06T22:55:22.490Z,2.80
2022-08-06T22:59:02.780Z,2.67
2022-08-06T23:02:05.962Z,2.85
2022-08-06T23:05:13.974Z,2.72
2022-08-06T23:08:21.030Z,2.70
2022-08-06T23:11:34.534Z,2.95
2022-08-06T23:14:38.925Z,2.75
2022-08-06T23:17:52.399Z,3.00
2022-08-06T23:21:20.528Z,2.90
2022-08-06T23:24:32.790Z,3.25
2022-08-06T23:27:46.346Z,3.30
2022-08-06T23:30:52.938Z,3.50
2022-08-06T23:34:00.072Z,3.12
2022-08-06T23:37:10.753Z,3.10
2022-08-06T23:40:16.305Z,3.40
2022-08-06T23:43:22.779Z,3.35
2022-08-06T23:46:27.979Z,3.60
2022-08-06T23:49:31.866Z,3.80
2022-08-06T23:52:35.098Z,3.37
2022-08-06T23:55:59.204Z,3.15
2022-08-06T23:59:03.333Z,3.15
